createdAt,value
2023-11-30T00:03:13.978Z,3.23
2023-11-30T00:08:16.036Z,3.40
2023-11-30T00:13:18.034Z,3.97
2023-11-30T00:18:20.303Z,3.83
2023-11-30T00:23:22.588Z,3.33
2023-11-30T00:28:24.809Z,3.10
2023-11-30T00:33:27.130Z,3.87
2023-11-30T00:38:29.793Z,3.47
2023-11-30T00:43:31.691Z,3.53
2023-11-30T00:48:33.947Z,5.07
2023-11-30T00:53:36.060Z,3.70
2023-11-30T00:58:38.038Z,4.27
2023-11-30T01:03:40.147Z,3.63
2023-11-30T01:08:42.161Z,3.63
2023-11-30T01:13:45.599Z,2.30
2023-11-30T01:18:47.737Z,3.43
2023-11-30T01:23:49.983Z,3.80
2023-11-30T01:28:52.630Z,3.47
2023-11-30T01:33:54.626Z,2.83
2023-11-30T01:38:56.939Z,3.70
2023-11-30T01:43:58.938Z,3.27
2023-11-30T01:49:01.520Z,4.23
2023-11-30T01:54:04.967Z,3.10
2023-11-30T01:59:08.607Z,2.60
2023-11-30T02:04:16.726Z,3.93
2023-11-30T02:09:19.841Z,3.07
2023-11-30T02:14:22.057Z,4.00
2023-11-30T02:19:24.054Z,3.00
2023-11-30T02:24:26.274Z,4.70
2023-11-30T02:29:29.902Z,3.47
2023-11-30T02:34:31.931Z,3.30
2023-11-30T02:39:34.208Z,3.20
2023-11-30T02:44:36.502Z,3.70
2023-11-30T02:49:38.508Z,4.33
2023-11-30T02:54:40.589Z,4.00
2023-11-30T02:59:44.268Z,3.43
2023-11-30T03:04:46.767Z,3.53
2023-11-30T03:09:48.640Z,3.77
2023-11-30T03:14:50.699Z,4.03
2023-11-30T03:19:52.856Z,4.10
2023-11-30T03:24:55.165Z,4.63
2023-11-30T03:29:59.093Z,4.13
2023-11-30T03:35:01.382Z,3.43
2023-11-30T03:40:04.135Z,3.43
2023-11-30T03:45:08.341Z,4.20
2023-11-30T03:50:13.913Z,3.00
2023-11-30T03:55:16.050Z,3.80
2023-11-30T04:00:18.788Z,4.63
2023-11-30T04:05:21.702Z,5.00
2023-11-30T04:10:23.653Z,4.33
2023-11-30T04:15:25.622Z,3.73
2023-11-30T04:20:29.503Z,3.40
2023-11-30T04:25:31.586Z,4.30
2023-11-30T04:30:33.672Z,4.90
2023-11-30T04:35:36.005Z,4.03
2023-11-30T04:40:37.931Z,4.53
2023-11-30T04:45:40.137Z,4.07
2023-11-30T04:50:42.061Z,6.17
2023-11-30T04:55:44.049Z,4.47
2023-11-30T05:06:24.885Z,4.43
2023-11-30T05:11:27.035Z,4.23
2023-11-30T05:16:29.352Z,6.13
2023-11-30T05:21:31.651Z,4.73
2023-11-30T05:26:33.690Z,5.50
2023-11-30T05:31:35.761Z,3.70
2023-11-30T05:36:37.860Z,5.33
2023-11-30T05:41:40.302Z,5.43
2023-11-30T05:46:42.880Z,5.17
2023-11-30T05:51:45.055Z,4.13
2023-11-30T05:56:47.225Z,4.00
2023-11-30T06:01:49.280Z,4.70
2023-11-30T06:06:51.525Z,5.23
2023-11-30T06:11:53.706Z,5.87
2023-11-30T06:16:56.105Z,5.10
2023-11-30T06:22:08.290Z,4.93
2023-11-30T06:27:10.671Z,4.93
2023-11-30T06:32:12.593Z,4.67
2023-11-30T06:37:17.407Z,4.93
2023-11-30T06:42:19.876Z,6.60
2023-11-30T06:47:22.452Z,5.67
2023-11-30T06:52:24.780Z,5.83
2023-11-30T06:57:29.522Z,5.37
2023-11-30T07:02:31.755Z,6.00
2023-11-30T07:07:37.307Z,6.67
2023-11-30T07:12:40.496Z,7.20
2023-11-30T07:17:42.464Z,5.73
2023-11-30T07:22:45.447Z,6.97
2023-11-30T07:27:47.423Z,6.50
2023-11-30T07:32:49.616Z,7.23
2023-11-30T07:37:51.792Z,6.13
2023-11-30T07:42:53.755Z,5.90
2023-11-30T07:47:58.158Z,6.90
2023-11-30T07:53:05.592Z,7.57
2023-11-30T07:58:07.620Z,6.53
2023-11-30T08:03:12.736Z,6.70
2023-11-30T08:08:14.969Z,6.40
2023-11-30T08:13:17.667Z,6.07
2023-11-30T08:18:25.764Z,6.57
2023-11-30T08:23:28.579Z,6.87
2023-11-30T08:28:31.191Z,6.33
2023-11-30T08:33:33.654Z,7.73
2023-11-30T08:38:39.388Z,11.90
2023-11-30T08:43:41.365Z,10.77
2023-11-30T08:48:44.284Z,9.00
2023-11-30T08:53:48.348Z,6.37
2023-11-30T08:58:50.761Z,7.43
2023-11-30T09:04:01.000Z,6.33
2023-11-30T09:09:03.523Z,9.10
2023-11-30T09:14:07.603Z,11.73
2023-11-30T09:19:09.501Z,9.30
2023-11-30T09:24:12.237Z,7.60
2023-11-30T09:29:15.142Z,7.57
2023-11-30T09:34:17.234Z,8.67
2023-11-30T09:39:21.012Z,8.87
2023-11-30T09:44:23.125Z,8.87
2023-11-30T09:49:25.603Z,10.57
2023-11-30T09:54:27.633Z,8.67
2023-11-30T09:59:30.726Z,9.90
2023-11-30T10:04:32.721Z,9.13
2023-11-30T10:09:37.287Z,14.03
2023-11-30T10:14:39.567Z,21.43
2023-11-30T10:19:42.166Z,14.67
2023-11-30T10:24:44.614Z,16.33
2023-11-30T10:29:49.444Z,17.10
2023-11-30T10:34:58.478Z,13.37
2023-11-30T10:40:10.590Z,14.53
2023-11-30T10:45:15.664Z,18.27
2023-11-30T10:50:21.328Z,15.57
2023-11-30T10:55:25.553Z,12.83
2023-11-30T11:06:09.598Z,14.80
2023-11-30T11:11:15.641Z,13.50
2023-11-30T11:16:18.349Z,14.37
2023-11-30T11:21:27.750Z,12.43
2023-11-30T11:26:43.343Z,12.07
2023-11-30T11:31:45.634Z,13.37
2023-11-30T11:36:49.567Z,13.03
2023-11-30T11:41:52.807Z,12.87
2023-11-30T11:46:54.825Z,16.20
2023-11-30T11:51:57.176Z,13.30
2023-11-30T11:56:59.303Z,11.03
2023-11-30T12:02:03.822Z,12.80
2023-11-30T12:07:18.171Z,14.00
2023-11-30T12:12:20.552Z,10.03
2023-11-30T12:17:22.851Z,11.50
2023-11-30T12:22:24.929Z,10.63
2023-11-30T12:27:26.996Z,9.67
2023-11-30T12:32:29.108Z,11.70
2023-11-30T12:37:32.133Z,9.47
2023-11-30T12:42:34.819Z,9.13
2023-11-30T12:47:36.992Z,9.73
2023-11-30T12:52:40.020Z,8.63
2023-11-30T12:57:45.035Z,8.27
2023-11-30T13:02:50.115Z,7.53
2023-11-30T13:07:54.676Z,8.07
2023-11-30T13:12:57.956Z,9.40
2023-11-30T13:18:00.418Z,8.53
2023-11-30T13:23:02.990Z,8.23
2023-11-30T13:28:05.262Z,9.03
2023-11-30T13:33:07.343Z,7.60
2023-11-30T13:38:11.992Z,10.13
2023-11-30T13:43:14.412Z,10.07
2023-11-30T13:48:17.809Z,10.10
2023-11-30T13:53:20.865Z,9.13
2023-11-30T13:58:23.627Z,9.30
2023-11-30T14:03:25.985Z,9.67
2023-11-30T14:08:29.938Z,8.80
2023-11-30T14:13:32.091Z,9.07
2023-11-30T14:18:34.490Z,9.30
2023-11-30T14:23:36.898Z,9.03
2023-11-30T14:28:39.970Z,7.60
2023-11-30T14:33:42.956Z,22.33
2023-11-30T14:38:45.760Z,17.00
2023-11-30T14:43:48.021Z,10.13
2023-11-30T14:48:51.206Z,14.70
2023-11-30T14:53:53.296Z,14.03
2023-11-30T14:58:55.687Z,10.70
2023-11-30T15:03:58.034Z,11.43
2023-11-30T15:09:00.021Z,9.37
2023-11-30T15:14:02.228Z,10.37
2023-11-30T15:19:05.298Z,13.73
2023-11-30T15:24:07.891Z,11.33
2023-11-30T15:29:09.818Z,13.77
2023-11-30T15:34:12.049Z,14.57
2023-11-30T15:39:17.577Z,12.80
2023-11-30T15:44:20.268Z,12.23
2023-11-30T15:49:22.294Z,11.37
2023-11-30T15:54:24.303Z,13.03
2023-11-30T15:59:27.041Z,14.10
2023-11-30T16:04:32.103Z,13.37
2023-11-30T16:09:35.495Z,14.87
2023-11-30T16:14:37.496Z,14.27
2023-11-30T16:19:39.978Z,15.10
2023-11-30T16:24:42.538Z,14.63
2023-11-30T16:29:45.639Z,15.03
2023-11-30T16:34:47.978Z,15.63
2023-11-30T16:39:53.877Z,16.03
2023-11-30T16:44:56.766Z,15.53
2023-11-30T16:49:58.994Z,19.03
2023-11-30T16:55:01.553Z,20.57
2023-11-30T17:00:05.404Z,16.63
2023-11-30T17:05:08.437Z,21.43
2023-11-30T17:10:11.616Z,17.63
2023-11-30T17:15:14.717Z,16.93
2023-11-30T17:20:16.929Z,15.70
2023-11-30T17:25:21.287Z,15.77
2023-11-30T17:30:25.166Z,14.83
2023-11-30T17:35:27.994Z,14.90
2023-11-30T17:40:30.443Z,14.70
2023-11-30T17:45:32.724Z,14.57
2023-11-30T17:50:35.029Z,15.23
2023-11-30T17:55:37.952Z,11.80
2023-11-30T18:00:40.137Z,12.57
2023-11-30T18:05:42.584Z,12.53
2023-11-30T18:10:44.757Z,13.43
2023-11-30T18:15:50.961Z,13.00
2023-11-30T18:20:53.378Z,11.93
2023-11-30T18:25:55.526Z,12.67
2023-11-30T18:36:24.672Z,19.27
2023-11-30T18:41:26.799Z,16.70
2023-11-30T18:46:29.346Z,18.43
2023-11-30T18:51:32.894Z,17.90
2023-11-30T18:56:35.365Z,17.13
2023-11-30T19:01:37.529Z,17.80
2023-11-30T19:06:39.929Z,17.90
2023-11-30T19:11:45.666Z,18.73
2023-11-30T19:16:48.544Z,19.60
2023-11-30T19:21:50.751Z,16.73
2023-11-30T19:26:52.916Z,19.43
2023-11-30T19:31:55.214Z,18.83
2023-11-30T19:36:58.641Z,18.43
2023-11-30T19:42:01.628Z,18.57
2023-11-30T19:47:05.382Z,20.20
2023-11-30T19:52:08.104Z,18.97
2023-11-30T19:57:10.565Z,18.63
2023-11-30T20:02:12.953Z,19.07
2023-11-30T20:07:19.902Z,17.60
2023-11-30T20:12:22.641Z,19.73
2023-11-30T20:17:25.521Z,20.63
2023-11-30T20:22:27.968Z,20.37
2023-11-30T20:27:31.201Z,18.33
2023-11-30T20:32:33.210Z,17.53
2023-11-30T20:37:36.931Z,18.73
2023-11-30T20:42:39.017Z,17.87
2023-11-30T20:47:41.361Z,17.70
2023-11-30T20:52:43.435Z,16.63
2023-11-30T20:57:47.170Z,17.53
2023-11-30T21:02:49.339Z,17.13
2023-11-30T21:07:51.659Z,15.43
2023-11-30T21:12:53.945Z,16.97
2023-11-30T21:17:57.096Z,18.07
2023-11-30T21:22:59.237Z,18.90
2023-11-30T21:28:01.754Z,18.33
2023-11-30T21:33:04.435Z,20.23
2023-11-30T21:38:07.071Z,16.53
2023-11-30T21:43:09.236Z,18.13
2023-11-30T21:48:12.663Z,17.50
2023-11-30T21:53:14.857Z,19.77
2023-11-30T21:58:17.109Z,18.33
2023-11-30T22:03:21.698Z,18.27
2023-11-30T22:08:25.246Z,20.57
2023-11-30T22:13:29.667Z,21.13
2023-11-30T22:18:32.845Z,20.63
2023-11-30T22:23:35.295Z,19.47
2023-11-30T22:28:37.332Z,18.33
2023-11-30T22:33:39.507Z,21.60
2023-11-30T22:38:46.327Z,21.83
2023-11-30T22:43:52.384Z,21.10
2023-11-30T22:48:54.849Z,23.27
2023-11-30T22:54:02.886Z,24.70
2023-11-30T23:04:07.418Z,21.93
2023-11-30T23:09:09.968Z,22.00
2023-11-30T23:14:13.232Z,24.37
2023-11-30T23:19:15.229Z,22.27
2023-11-30T23:24:25.734Z,25.30
2023-11-30T23:29:31.150Z,23.67
2023-11-30T23:34:33.261Z,24.60
2023-11-30T23:39:36.571Z,24.03
2023-11-30T23:44:39.329Z,21.60
2023-11-30T23:49:41.801Z,23.83
2023-11-30T23:54:44.034Z,23.30
2023-11-30T23:59:46.512Z,23.57
